sensor_id;sensor_type;location;lat;lon;timestamp;P1;durP1;ratioP1;P2;durP2;ratioP2
8710;SDS011;4392;47.400;8.062;2022-07-22T00:01:34;36.83;;;34.83;;
8710;SDS011;4392;47.400;8.062;2022-07-22T00:04:01;36.47;;;34.67;;
8710;SDS011;4392;47.400;8.062;2022-07-22T00:06:27;35.73;;;33.97;;
8710;SDS011;4392;47.400;8.062;2022-07-22T00:08:54;36.80;;;34.90;;
8710;SDS011;4392;47.400;8.062;2022-07-22T00:11:20;35.57;;;33.77;;
8710;SDS011;4392;47.400;8.062;2022-07-22T00:13:46;36.23;;;34.23;;
8710;SDS011;4392;47.400;8.062;2022-07-22T00:16:12;36.37;;;34.53;;
8710;SDS011;4392;47.400;8.062;2022-07-22T00:18:37;35.67;;;33.87;;
8710;SDS011;4392;47.400;8.062;2022-07-22T00:21:03;36.47;;;34.50;;
8710;SDS011;4392;47.400;8.062;2022-07-22T00:23:29;36.40;;;34.50;;
8710;SDS011;4392;47.400;8.062;2022-07-22T00:25:55;36.27;;;34.47;;
8710;SDS011;4392;47.400;8.062;2022-07-22T00:28:21;35.73;;;33.87;;
8710;SDS011;4392;47.400;8.062;2022-07-22T00:30:47;36.30;;;34.40;;
8710;SDS011;4392;47.400;8.062;2022-07-22T00:33:12;36.33;;;34.33;;
8710;SDS011;4392;47.400;8.062;2022-07-22T00:35:40;36.03;;;34.33;;
8710;SDS011;4392;47.400;8.062;2022-07-22T00:38:06;36.23;;;34.33;;
8710;SDS011;4392;47.400;8.062;2022-07-22T00:40:32;35.53;;;33.73;;
8710;SDS011;4392;47.400;8.062;2022-07-22T00:42:57;35.90;;;34.10;;
8710;SDS011;4392;47.400;8.062;2022-07-22T00:45:25;36.07;;;34.27;;
8710;SDS011;4392;47.400;8.062;2022-07-22T00:47:50;36.07;;;34.27;;
8710;SDS011;4392;47.400;8.062;2022-07-22T00:50:16;35.37;;;33.47;;
8710;SDS011;4392;47.400;8.062;2022-07-22T00:52:45;35.80;;;33.97;;
8710;SDS011;4392;47.400;8.062;2022-07-22T00:55:11;36.00;;;34.20;;
8710;SDS011;4392;47.400;8.062;2022-07-22T00:57:37;35.50;;;33.70;;
8710;SDS011;4392;47.400;8.062;2022-07-22T01:00:04;35.13;;;33.43;;
8710;SDS011;4392;47.400;8.062;2022-07-22T01:02:33;35.57;;;33.80;;
8710;SDS011;4392;47.400;8.062;2022-07-22T01:04:59;35.60;;;33.87;;
8710;SDS011;4392;47.400;8.062;2022-07-22T01:07:24;34.93;;;33.20;;
8710;SDS011;4392;47.400;8.062;2022-07-22T01:09:50;35.93;;;34.17;;
8710;SDS011;4392;47.400;8.062;2022-07-22T01:12:16;35.90;;;34.20;;
8710;SDS011;4392;47.400;8.062;2022-07-22T01:14:41;36.67;;;34.80;;
8710;SDS011;4392;47.400;8.062;2022-07-22T01:17:07;35.77;;;33.97;;
8710;SDS011;4392;47.400;8.062;2022-07-22T01:19:34;36.50;;;34.50;;
8710;SDS011;4392;47.400;8.062;2022-07-22T01:22:01;35.93;;;34.13;;
8710;SDS011;4392;47.400;8.062;2022-07-22T01:24:27;36.33;;;34.53;;
8710;SDS011;4392;47.400;8.062;2022-07-22T01:26:53;35.80;;;33.90;;
8710;SDS011;4392;47.400;8.062;2022-07-22T01:29:20;36.87;;;34.77;;
8710;SDS011;4392;47.400;8.062;2022-07-22T01:31:45;35.83;;;34.03;;
8710;SDS011;4392;47.400;8.062;2022-07-22T01:34:12;35.67;;;33.87;;
8710;SDS011;4392;47.400;8.062;2022-07-22T01:36:37;35.87;;;34.07;;
8710;SDS011;4392;47.400;8.062;2022-07-22T01:39:03;35.63;;;33.77;;
8710;SDS011;4392;47.400;8.062;2022-07-22T01:41:29;35.53;;;33.77;;
8710;SDS011;4392;47.400;8.062;2022-07-22T01:43:55;36.07;;;34.17;;
8710;SDS011;4392;47.400;8.062;2022-07-22T01:46:21;35.83;;;34.03;;
8710;SDS011;4392;47.400;8.062;2022-07-22T01:48:48;36.40;;;34.43;;
8710;SDS011;4392;47.400;8.062;2022-07-22T01:51:14;35.70;;;33.90;;
8710;SDS011;4392;47.400;8.062;2022-07-22T01:53:40;35.90;;;34.00;;
8710;SDS011;4392;47.400;8.062;2022-07-22T01:56:06;35.97;;;34.27;;
8710;SDS011;4392;47.400;8.062;2022-07-22T01:58:32;35.80;;;34.00;;
8710;SDS011;4392;47.400;8.062;2022-07-22T02:00:57;36.07;;;34.17;;
8710;SDS011;4392;47.400;8.062;2022-07-22T02:03:23;36.23;;;34.43;;
8710;SDS011;4392;47.400;8.062;2022-07-22T02:05:49;35.37;;;33.57;;
8710;SDS011;4392;47.400;8.062;2022-07-22T02:08:15;36.87;;;34.73;;
8710;SDS011;4392;47.400;8.062;2022-07-22T02:10:43;35.00;;;33.27;;
8710;SDS011;4392;47.400;8.062;2022-07-22T02:13:09;35.90;;;34.10;;
8710;SDS011;4392;47.400;8.062;2022-07-22T02:15:34;36.00;;;34.10;;
8710;SDS011;4392;47.400;8.062;2022-07-22T02:18:08;35.83;;;33.87;;
8710;SDS011;4392;47.400;8.062;2022-07-22T02:20:38;35.80;;;34.00;;
8710;SDS011;4392;47.400;8.062;2022-07-22T02:23:05;35.63;;;33.87;;
8710;SDS011;4392;47.400;8.062;2022-07-22T02:25:31;36.23;;;34.23;;
8710;SDS011;4392;47.400;8.062;2022-07-22T02:27:57;35.87;;;33.90;;
8710;SDS011;4392;47.400;8.062;2022-07-22T02:30:23;35.10;;;33.40;;
8710;SDS011;4392;47.400;8.062;2022-07-22T02:32:49;35.50;;;33.80;;
8710;SDS011;4392;47.400;8.062;2022-07-22T02:35:14;35.67;;;33.80;;
8710;SDS011;4392;47.400;8.062;2022-07-22T02:37:40;37.17;;;35.07;;
8710;SDS011;4392;47.400;8.062;2022-07-22T02:40:06;35.77;;;33.97;;
8710;SDS011;4392;47.400;8.062;2022-07-22T02:42:33;37.93;;;35.63;;
8710;SDS011;4392;47.400;8.062;2022-07-22T02:44:59;36.87;;;34.93;;
8710;SDS011;4392;47.400;8.062;2022-07-22T02:47:25;37.60;;;35.47;;
8710;SDS011;4392;47.400;8.062;2022-07-22T02:49:50;38.27;;;36.07;;
8710;SDS011;4392;47.400;8.062;2022-07-22T02:52:17;40.43;;;37.77;;
8710;SDS011;4392;47.400;8.062;2022-07-22T02:54:43;38.57;;;36.30;;
8710;SDS011;4392;47.400;8.062;2022-07-22T02:57:08;41.83;;;39.00;;
8710;SDS011;4392;47.400;8.062;2022-07-22T02:59:34;42.07;;;39.27;;
8710;SDS011;4392;47.400;8.062;2022-07-22T03:02:00;40.07;;;37.53;;
8710;SDS011;4392;47.400;8.062;2022-07-22T03:04:26;43.37;;;40.57;;
8710;SDS011;4392;47.400;8.062;2022-07-22T03:06:52;41.70;;;39.10;;
8710;SDS011;4392;47.400;8.062;2022-07-22T03:09:18;40.37;;;37.87;;
8710;SDS011;4392;47.400;8.062;2022-07-22T03:11:44;38.87;;;36.30;;
8710;SDS011;4392;47.400;8.062;2022-07-22T03:14:10;38.13;;;35.93;;
8710;SDS011;4392;47.400;8.062;2022-07-22T03:16:36;38.27;;;35.97;;
8710;SDS011;4392;47.400;8.062;2022-07-22T03:19:02;37.30;;;35.20;;
8710;SDS011;4392;47.400;8.062;2022-07-22T03:21:28;37.10;;;35.00;;
8710;SDS011;4392;47.400;8.062;2022-07-22T03:23:53;38.20;;;36.17;;
8710;SDS011;4392;47.400;8.062;2022-07-22T03:26:23;36.37;;;34.50;;
8710;SDS011;4392;47.400;8.062;2022-07-22T03:28:49;37.30;;;35.17;;
8710;SDS011;4392;47.400;8.062;2022-07-22T03:31:15;37.67;;;35.70;;
8710;SDS011;4392;47.400;8.062;2022-07-22T03:33:41;37.37;;;35.47;;
8710;SDS011;4392;47.400;8.062;2022-07-22T03:36:07;37.37;;;35.17;;
8710;SDS011;4392;47.400;8.062;2022-07-22T03:38:33;37.13;;;35.00;;
8710;SDS011;4392;47.400;8.062;2022-07-22T03:41:00;37.93;;;35.73;;
8710;SDS011;4392;47.400;8.062;2022-07-22T03:43:26;38.33;;;36.03;;
8710;SDS011;4392;47.400;8.062;2022-07-22T03:45:51;38.20;;;35.70;;
8710;SDS011;4392;47.400;8.062;2022-07-22T03:48:17;37.40;;;35.23;;
8710;SDS011;4392;47.400;8.062;2022-07-22T03:50:44;37.87;;;35.33;;
8710;SDS011;4392;47.400;8.062;2022-07-22T03:53:10;37.20;;;35.17;;
8710;SDS011;4392;47.400;8.062;2022-07-22T03:55:36;37.60;;;35.50;;
8710;SDS011;4392;47.400;8.062;2022-07-22T03:58:01;37.13;;;34.80;;
8710;SDS011;4392;47.400;8.062;2022-07-22T04:00:27;36.87;;;34.83;;
8710;SDS011;4392;47.400;8.062;2022-07-22T04:02:53;36.80;;;34.70;;
8710;SDS011;4392;47.400;8.062;2022-07-22T04:05:19;36.67;;;34.67;;
8710;SDS011;4392;47.400;8.062;2022-07-22T04:07:45;36.63;;;34.43;;
8710;SDS011;4392;47.400;8.062;2022-07-22T04:10:11;37.80;;;35.60;;
8710;SDS011;4392;47.400;8.062;2022-07-22T04:12:38;36.47;;;34.57;;
8710;SDS011;4392;47.400;8.062;2022-07-22T04:15:06;36.90;;;34.70;;
8710;SDS011;4392;47.400;8.062;2022-07-22T04:17:34;36.80;;;34.80;;
8710;SDS011;4392;47.400;8.062;2022-07-22T04:20:00;36.63;;;34.83;;
8710;SDS011;4392;47.400;8.062;2022-07-22T04:22:26;35.80;;;33.90;;
8710;SDS011;4392;47.400;8.062;2022-07-22T04:24:52;35.97;;;34.07;;
8710;SDS011;4392;47.400;8.062;2022-07-22T04:27:18;36.37;;;34.47;;
8710;SDS011;4392;47.400;8.062;2022-07-22T04:29:44;35.80;;;33.90;;
8710;SDS011;4392;47.400;8.062;2022-07-22T04:32:10;35.53;;;33.73;;
8710;SDS011;4392;47.400;8.062;2022-07-22T04:34:35;36.13;;;34.13;;
8710;SDS011;4392;47.400;8.062;2022-07-22T04:37:01;36.37;;;34.47;;
8710;SDS011;4392;47.400;8.062;2022-07-22T04:39:27;36.73;;;34.80;;
8710;SDS011;4392;47.400;8.062;2022-07-22T04:41:53;36.63;;;34.73;;
8710;SDS011;4392;47.400;8.062;2022-07-22T04:44:18;36.07;;;34.17;;
8710;SDS011;4392;47.400;8.062;2022-07-22T04:46:46;36.53;;;34.63;;
8710;SDS011;4392;47.400;8.062;2022-07-22T04:49:12;37.77;;;35.63;;
8710;SDS011;4392;47.400;8.062;2022-07-22T04:51:38;36.87;;;34.87;;
8710;SDS011;4392;47.400;8.062;2022-07-22T04:54:04;36.13;;;34.33;;
8710;SDS011;4392;47.400;8.062;2022-07-22T04:56:30;35.83;;;33.83;;
8710;SDS011;4392;47.400;8.062;2022-07-22T04:58:56;36.70;;;34.60;;
8710;SDS011;4392;47.400;8.062;2022-07-22T05:01:21;36.30;;;34.37;;
8710;SDS011;4392;47.400;8.062;2022-07-22T05:03:47;36.33;;;34.40;;
8710;SDS011;4392;47.400;8.062;2022-07-22T05:06:13;36.77;;;34.67;;
8710;SDS011;4392;47.400;8.062;2022-07-22T05:08:39;36.87;;;34.67;;
8710;SDS011;4392;47.400;8.062;2022-07-22T05:11:06;37.20;;;35.00;;
8710;SDS011;4392;47.400;8.062;2022-07-22T05:13:32;36.10;;;34.20;;
8710;SDS011;4392;47.400;8.062;2022-07-22T05:16:01;36.93;;;34.93;;
8710;SDS011;4392;47.400;8.062;2022-07-22T05:18:28;36.07;;;34.17;;
8710;SDS011;4392;47.400;8.062;2022-07-22T05:20:54;36.83;;;34.77;;
8710;SDS011;4392;47.400;8.062;2022-07-22T05:23:20;35.87;;;34.03;;
8710;SDS011;4392;47.400;8.062;2022-07-22T05:25:45;36.27;;;34.17;;
8710;SDS011;4392;47.400;8.062;2022-07-22T05:28:11;36.80;;;34.70;;
8710;SDS011;4392;47.400;8.062;2022-07-22T05:30:37;37.03;;;34.87;;
8710;SDS011;4392;47.400;8.062;2022-07-22T05:33:04;37.37;;;35.37;;
8710;SDS011;4392;47.400;8.062;2022-07-22T05:35:30;36.07;;;34.07;;
8710;SDS011;4392;47.400;8.062;2022-07-22T05:37:56;35.87;;;33.93;;
8710;SDS011;4392;47.400;8.062;2022-07-22T05:40:21;36.93;;;34.83;;
8710;SDS011;4392;47.400;8.062;2022-07-22T05:42:47;36.70;;;34.80;;
8710;SDS011;4392;47.400;8.062;2022-07-22T05:45:13;36.50;;;34.60;;
8710;SDS011;4392;47.400;8.062;2022-07-22T05:47:39;36.23;;;34.33;;
8710;SDS011;4392;47.400;8.062;2022-07-22T05:50:05;36.73;;;34.70;;
8710;SDS011;4392;47.400;8.062;2022-07-22T05:52:30;36.23;;;34.43;;
8710;SDS011;4392;47.400;8.062;2022-07-22T05:54:59;36.87;;;34.97;;
8710;SDS011;4392;47.400;8.062;2022-07-22T05:57:25;36.77;;;34.73;;
8710;SDS011;4392;47.400;8.062;2022-07-22T05:59:51;36.77;;;34.67;;
8710;SDS011;4392;47.400;8.062;2022-07-22T06:02:16;37.37;;;35.17;;
8710;SDS011;4392;47.400;8.062;2022-07-22T06:04:42;36.87;;;34.77;;
8710;SDS011;4392;47.400;8.062;2022-07-22T06:07:08;40.27;;;37.93;;
8710;SDS011;4392;47.400;8.062;2022-07-22T06:09:34;45.70;;;42.33;;
8710;SDS011;4392;47.400;8.062;2022-07-22T06:11:59;42.37;;;39.50;;
8710;SDS011;4392;47.400;8.062;2022-07-22T06:14:25;38.50;;;36.10;;
8710;SDS011;4392;47.400;8.062;2022-07-22T06:16:51;37.50;;;35.47;;
8710;SDS011;4392;47.400;8.062;2022-07-22T06:19:16;38.03;;;35.83;;
8710;SDS011;4392;47.400;8.062;2022-07-22T06:21:42;39.97;;;37.57;;
8710;SDS011;4392;47.400;8.062;2022-07-22T06:24:08;53.30;;;49.10;;
8710;SDS011;4392;47.400;8.062;2022-07-22T06:26:34;42.73;;;39.90;;
8710;SDS011;4392;47.400;8.062;2022-07-22T06:28:59;42.90;;;40.00;;
8710;SDS011;4392;47.400;8.062;2022-07-22T06:31:25;39.87;;;37.27;;
8710;SDS011;4392;47.400;8.062;2022-07-22T06:33:51;39.87;;;37.43;;
8710;SDS011;4392;47.400;8.062;2022-07-22T06:36:16;39.87;;;37.57;;
8710;SDS011;4392;47.400;8.062;2022-07-22T06:38:43;39.67;;;37.07;;
8710;SDS011;4392;47.400;8.062;2022-07-22T06:41:09;40.27;;;37.83;;
8710;SDS011;4392;47.400;8.062;2022-07-22T06:43:35;44.97;;;41.83;;
8710;SDS011;4392;47.400;8.062;2022-07-22T06:46:01;43.40;;;40.63;;
8710;SDS011;4392;47.400;8.062;2022-07-22T06:48:27;40.13;;;37.80;;
8710;SDS011;4392;47.400;8.062;2022-07-22T06:50:53;39.87;;;37.47;;
8710;SDS011;4392;47.400;8.062;2022-07-22T06:53:19;80.27;;;72.80;;
8710;SDS011;4392;47.400;8.062;2022-07-22T06:55:45;66.47;;;60.73;;
8710;SDS011;4392;47.400;8.062;2022-07-22T06:58:11;52.43;;;48.13;;
8710;SDS011;4392;47.400;8.062;2022-07-22T07:00:37;46.87;;;43.67;;
8710;SDS011;4392;47.400;8.062;2022-07-22T07:03:03;48.43;;;44.83;;
8710;SDS011;4392;47.400;8.062;2022-07-22T07:05:29;44.07;;;41.23;;
8710;SDS011;4392;47.400;8.062;2022-07-22T07:07:55;41.17;;;38.33;;
8710;SDS011;4392;47.400;8.062;2022-07-22T07:10:21;39.83;;;37.13;;
8710;SDS011;4392;47.400;8.062;2022-07-22T07:12:47;38.87;;;36.57;;
8710;SDS011;4392;47.400;8.062;2022-07-22T07:15:12;37.37;;;35.27;;
8710;SDS011;4392;47.400;8.062;2022-07-22T07:17:38;37.83;;;35.67;;
8710;SDS011;4392;47.400;8.062;2022-07-22T07:20:07;44.67;;;41.67;;
8710;SDS011;4392;47.400;8.062;2022-07-22T07:22:33;40.27;;;37.77;;
8710;SDS011;4392;47.400;8.062;2022-07-22T07:25:06;39.57;;;37.07;;
8710;SDS011;4392;47.400;8.062;2022-07-22T07:27:33;38.43;;;36.23;;
8710;SDS011;4392;47.400;8.062;2022-07-22T07:29:59;38.70;;;36.43;;
8710;SDS011;4392;47.400;8.062;2022-07-22T07:32:25;38.27;;;36.07;;
8710;SDS011;4392;47.400;8.062;2022-07-22T07:34:51;38.47;;;36.27;;
8710;SDS011;4392;47.400;8.062;2022-07-22T07:37:17;38.33;;;36.23;;
8710;SDS011;4392;47.400;8.062;2022-07-22T07:39:43;38.17;;;36.07;;
8710;SDS011;4392;47.400;8.062;2022-07-22T07:42:08;38.73;;;36.37;;
8710;SDS011;4392;47.400;8.062;2022-07-22T07:44:37;37.87;;;35.73;;
8710;SDS011;4392;47.400;8.062;2022-07-22T07:47:02;38.90;;;36.70;;
8710;SDS011;4392;47.400;8.062;2022-07-22T07:49:31;39.13;;;36.83;;
8710;SDS011;4392;47.400;8.062;2022-07-22T07:51:56;38.10;;;35.90;;
8710;SDS011;4392;47.400;8.062;2022-07-22T07:54:22;38.27;;;35.97;;
8710;SDS011;4392;47.400;8.062;2022-07-22T07:56:48;38.37;;;36.07;;
8710;SDS011;4392;47.400;8.062;2022-07-22T07:59:20;40.27;;;37.87;;
8710;SDS011;4392;47.400;8.062;2022-07-22T08:01:47;37.97;;;35.77;;
8710;SDS011;4392;47.400;8.062;2022-07-22T08:04:13;38.50;;;36.40;;
8710;SDS011;4392;47.400;8.062;2022-07-22T08:06:38;38.70;;;36.60;;
8710;SDS011;4392;47.400;8.062;2022-07-22T08:09:04;39.27;;;36.93;;
8710;SDS011;4392;47.400;8.062;2022-07-22T08:11:30;39.33;;;37.13;;
8710;SDS011;4392;47.400;8.062;2022-07-22T08:13:56;40.63;;;38.13;;
8710;SDS011;4392;47.400;8.062;2022-07-22T08:16:22;40.13;;;37.53;;
8710;SDS011;4392;47.400;8.062;2022-07-22T08:18:48;38.43;;;36.23;;
8710;SDS011;4392;47.400;8.062;2022-07-22T08:21:14;39.20;;;37.00;;
8710;SDS011;4392;47.400;8.062;2022-07-22T08:23:40;38.50;;;36.30;;
8710;SDS011;4392;47.400;8.062;2022-07-22T08:26:06;40.27;;;37.60;;
8710;SDS011;4392;47.400;8.062;2022-07-22T08:28:31;39.40;;;36.93;;
8710;SDS011;4392;47.400;8.062;2022-07-22T08:30:57;38.53;;;36.40;;
8710;SDS011;4392;47.400;8.062;2022-07-22T08:33:23;38.43;;;36.23;;
8710;SDS011;4392;47.400;8.062;2022-07-22T08:35:51;39.00;;;36.80;;
8710;SDS011;4392;47.400;8.062;2022-07-22T08:38:16;38.80;;;36.50;;
8710;SDS011;4392;47.400;8.062;2022-07-22T08:40:42;39.17;;;37.07;;
8710;SDS011;4392;47.400;8.062;2022-07-22T08:43:08;40.50;;;37.97;;
8710;SDS011;4392;47.400;8.062;2022-07-22T08:45:34;40.40;;;38.00;;
8710;SDS011;4392;47.400;8.062;2022-07-22T08:48:00;39.93;;;37.47;;
8710;SDS011;4392;47.400;8.062;2022-07-22T08:50:28;39.50;;;37.17;;
8710;SDS011;4392;47.400;8.062;2022-07-22T08:52:55;40.43;;;37.97;;
8710;SDS011;4392;47.400;8.062;2022-07-22T08:55:21;39.40;;;37.00;;
8710;SDS011;4392;47.400;8.062;2022-07-22T08:57:47;39.60;;;37.38;;
8710;SDS011;4392;47.400;8.062;2022-07-22T09:00:15;40.20;;;37.65;;
8710;SDS011;4392;47.400;8.062;2022-07-22T09:02:46;40.53;;;37.92;;
8710;SDS011;4392;47.400;8.062;2022-07-22T09:05:13;41.07;;;38.53;;
8710;SDS011;4392;47.400;8.062;2022-07-22T09:07:41;41.07;;;38.47;;
8710;SDS011;4392;47.400;8.062;2022-07-22T09:10:12;42.23;;;39.33;;
8710;SDS011;4392;47.400;8.062;2022-07-22T09:12:50;41.53;;;38.93;;
8710;SDS011;4392;47.400;8.062;2022-07-22T09:15:46;40.70;;;38.03;;
8710;SDS011;4392;47.400;8.062;2022-07-22T09:18:13;41.43;;;38.83;;
8710;SDS011;4392;47.400;8.062;2022-07-22T09:20:40;41.30;;;38.90;;
8710;SDS011;4392;47.400;8.062;2022-07-22T09:23:18;41.30;;;38.70;;
8710;SDS011;4392;47.400;8.062;2022-07-22T09:25:47;40.80;;;38.47;;
8710;SDS011;4392;47.400;8.062;2022-07-22T09:28:14;42.07;;;39.40;;
8710;SDS011;4392;47.400;8.062;2022-07-22T09:33:15;41.57;;;38.93;;
8710;SDS011;4392;47.400;8.062;2022-07-22T09:35:42;41.92;;;39.13;;
8710;SDS011;4392;47.400;8.062;2022-07-22T09:38:10;41.28;;;38.58;;
8710;SDS011;4392;47.400;8.062;2022-07-22T09:40:38;41.65;;;39.08;;
8710;SDS011;4392;47.400;8.062;2022-07-22T09:43:11;42.67;;;39.97;;
8710;SDS011;4392;47.400;8.062;2022-07-22T09:48:13;42.30;;;39.80;;
8710;SDS011;4392;47.400;8.062;2022-07-22T09:50:39;42.60;;;39.80;;
8710;SDS011;4392;47.400;8.062;2022-07-22T09:53:10;41.43;;;38.90;;
8710;SDS011;4392;47.400;8.062;2022-07-22T09:55:37;41.57;;;39.00;;
8710;SDS011;4392;47.400;8.062;2022-07-22T09:58:04;41.70;;;39.30;;
8710;SDS011;4392;47.400;8.062;2022-07-22T10:00:33;42.43;;;39.93;;
8710;SDS011;4392;47.400;8.062;2022-07-22T10:03:00;42.30;;;39.35;;
8710;SDS011;4392;47.400;8.062;2022-07-22T10:05:30;41.45;;;39.03;;
8710;SDS011;4392;47.400;8.062;2022-07-22T10:07:57;40.88;;;38.38;;
8710;SDS011;4392;47.400;8.062;2022-07-22T10:10:28;42.33;;;39.85;;
8710;SDS011;4392;47.400;8.062;2022-07-22T10:12:56;42.03;;;39.53;;
8710;SDS011;4392;47.400;8.062;2022-07-22T10:15:23;41.08;;;38.58;;
8710;SDS011;4392;47.400;8.062;2022-07-22T10:17:50;42.00;;;39.33;;
8710;SDS011;4392;47.400;8.062;2022-07-22T10:20:18;42.08;;;39.58;;
8710;SDS011;4392;47.400;8.062;2022-07-22T10:25:29;42.23;;;39.57;;
8710;SDS011;4392;47.400;8.062;2022-07-22T10:28:02;42.15;;;39.33;;
8710;SDS011;4392;47.400;8.062;2022-07-22T10:33:07;41.08;;;38.65;;
8710;SDS011;4392;47.400;8.062;2022-07-22T10:38:09;41.72;;;39.15;;
8710;SDS011;4392;47.400;8.062;2022-07-22T10:40:52;42.25;;;39.75;;
8710;SDS011;4392;47.400;8.062;2022-07-22T10:43:19;41.13;;;38.72;;
8710;SDS011;4392;47.400;8.062;2022-07-22T10:48:18;42.20;;;39.70;;
8710;SDS011;4392;47.400;8.062;2022-07-22T10:50:46;41.78;;;39.10;;
8710;SDS011;4392;47.400;8.062;2022-07-22T10:53:24;41.88;;;39.28;;
8710;SDS011;4392;47.400;8.062;2022-07-22T10:56:09;41.97;;;39.47;;
8710;SDS011;4392;47.400;8.062;2022-07-22T10:58:50;41.40;;;38.90;;
8710;SDS011;4392;47.400;8.062;2022-07-22T11:01:38;41.83;;;39.33;;
8710;SDS011;4392;47.400;8.062;2022-07-22T11:04:17;41.53;;;39.13;;
8710;SDS011;4392;47.400;8.062;2022-07-22T11:06:47;42.78;;;40.08;;
8710;SDS011;4392;47.400;8.062;2022-07-22T11:09:14;42.38;;;39.70;;
8710;SDS011;4392;47.400;8.062;2022-07-22T11:11:46;41.28;;;38.78;;
8710;SDS011;4392;47.400;8.062;2022-07-22T11:16:47;41.95;;;39.60;;
8710;SDS011;4392;47.400;8.062;2022-07-22T11:19:15;42.10;;;39.60;;
8710;SDS011;4392;47.400;8.062;2022-07-22T11:21:48;42.17;;;39.72;;
8710;SDS011;4392;47.400;8.062;2022-07-22T11:24:16;42.28;;;39.67;;
8710;SDS011;4392;47.400;8.062;2022-07-22T11:26:45;41.47;;;39.03;;
8710;SDS011;4392;47.400;8.062;2022-07-22T11:29:22;42.22;;;39.83;;
8710;SDS011;4392;47.400;8.062;2022-07-22T11:31:51;42.33;;;39.72;;
8710;SDS011;4392;47.400;8.062;2022-07-22T11:34:17;41.70;;;39.13;;
8710;SDS011;4392;47.400;8.062;2022-07-22T11:36:45;41.42;;;38.78;;
8710;SDS011;4392;47.400;8.062;2022-07-22T11:39:12;41.45;;;38.95;;
8710;SDS011;4392;47.400;8.062;2022-07-22T11:41:40;40.75;;;38.45;;
8710;SDS011;4392;47.400;8.062;2022-07-22T11:44:06;41.30;;;38.80;;
8710;SDS011;4392;47.400;8.062;2022-07-22T11:46:40;42.03;;;39.58;;
8710;SDS011;4392;47.400;8.062;2022-07-22T11:49:07;40.45;;;38.15;;
8710;SDS011;4392;47.400;8.062;2022-07-22T11:51:34;41.58;;;39.03;;
8710;SDS011;4392;47.400;8.062;2022-07-22T11:54:03;42.55;;;40.05;;
8710;SDS011;4392;47.400;8.062;2022-07-22T11:56:30;41.38;;;38.92;;
8710;SDS011;4392;47.400;8.062;2022-07-22T11:58:56;41.20;;;38.80;;
8710;SDS011;4392;47.400;8.062;2022-07-22T12:01:26;41.08;;;38.67;;
8710;SDS011;4392;47.400;8.062;2022-07-22T12:04:00;41.25;;;38.63;;
8710;SDS011;4392;47.400;8.062;2022-07-22T12:06:33;40.88;;;38.60;;
8710;SDS011;4392;47.400;8.062;2022-07-22T12:11:33;41.83;;;39.25;;
8710;SDS011;4392;47.400;8.062;2022-07-22T12:14:05;42.85;;;40.25;;
8710;SDS011;4392;47.400;8.062;2022-07-22T12:16:35;42.20;;;39.53;;
8710;SDS011;4392;47.400;8.062;2022-07-22T12:19:03;40.15;;;37.95;;
8710;SDS011;4392;47.400;8.062;2022-07-22T12:21:32;40.95;;;38.55;;
8710;SDS011;4392;47.400;8.062;2022-07-22T12:24:14;41.45;;;39.08;;
8710;SDS011;4392;47.400;8.062;2022-07-22T12:26:41;42.35;;;39.97;;
8710;SDS011;4392;47.400;8.062;2022-07-22T12:31:55;41.47;;;38.78;;
8710;SDS011;4392;47.400;8.062;2022-07-22T12:37:19;41.95;;;39.58;;
8710;SDS011;4392;47.400;8.062;2022-07-22T12:45:28;43.17;;;40.50;;
8710;SDS011;4392;47.400;8.062;2022-07-22T12:52:55;42.47;;;39.47;;
8710;SDS011;4392;47.400;8.062;2022-07-22T12:55:23;41.70;;;39.15;;
8710;SDS011;4392;47.400;8.062;2022-07-22T12:57:49;42.53;;;39.78;;
8710;SDS011;4392;47.400;8.062;2022-07-22T13:00:17;41.72;;;39.28;;
8710;SDS011;4392;47.400;8.062;2022-07-22T13:02:50;41.53;;;39.10;;
8710;SDS011;4392;47.400;8.062;2022-07-22T13:05:16;39.90;;;37.75;;
8710;SDS011;4392;47.400;8.062;2022-07-22T13:07:43;41.15;;;38.78;;
8710;SDS011;4392;47.400;8.062;2022-07-22T13:10:10;41.33;;;38.95;;
8710;SDS011;4392;47.400;8.062;2022-07-22T13:12:37;41.05;;;38.75;;
8710;SDS011;4392;47.400;8.062;2022-07-22T13:15:03;41.33;;;39.03;;
8710;SDS011;4392;47.400;8.062;2022-07-22T13:17:29;42.63;;;39.92;;
8710;SDS011;4392;47.400;8.062;2022-07-22T13:19:55;41.22;;;39.05;;
8710;SDS011;4392;47.400;8.062;2022-07-22T13:22:20;41.40;;;38.90;;
8710;SDS011;4392;47.400;8.062;2022-07-22T13:24:46;42.17;;;39.75;;
8710;SDS011;4392;47.400;8.062;2022-07-22T13:27:12;41.05;;;38.65;;
8710;SDS011;4392;47.400;8.062;2022-07-22T13:29:38;40.80;;;38.50;;
8710;SDS011;4392;47.400;8.062;2022-07-22T13:32:04;41.40;;;39.00;;
8710;SDS011;4392;47.400;8.062;2022-07-22T13:34:30;41.13;;;38.72;;
8710;SDS011;4392;47.400;8.062;2022-07-22T13:36:56;42.40;;;40.05;;
8710;SDS011;4392;47.400;8.062;2022-07-22T13:39:23;42.05;;;39.72;;
8710;SDS011;4392;47.400;8.062;2022-07-22T13:41:49;41.30;;;38.90;;
8710;SDS011;4392;47.400;8.062;2022-07-22T13:44:15;40.67;;;38.47;;
8710;SDS011;4392;47.400;8.062;2022-07-22T13:46:41;41.13;;;38.92;;
8710;SDS011;4392;47.400;8.062;2022-07-22T13:49:07;40.97;;;38.67;;
8710;SDS011;4392;47.400;8.062;2022-07-22T13:51:33;41.10;;;38.80;;
8710;SDS011;4392;47.400;8.062;2022-07-22T13:53:58;40.55;;;38.45;;
8710;SDS011;4392;47.400;8.062;2022-07-22T13:56:24;41.38;;;38.85;;
8710;SDS011;4392;47.400;8.062;2022-07-22T13:58:51;40.97;;;38.67;;
8710;SDS011;4392;47.400;8.062;2022-07-22T14:01:16;40.72;;;38.47;;
8710;SDS011;4392;47.400;8.062;2022-07-22T14:03:42;40.50;;;38.30;;
8710;SDS011;4392;47.400;8.062;2022-07-22T14:06:08;42.65;;;39.80;;
8710;SDS011;4392;47.400;8.062;2022-07-22T14:08:34;40.58;;;38.38;;
8710;SDS011;4392;47.400;8.062;2022-07-22T14:11:00;41.40;;;39.00;;
8710;SDS011;4392;47.400;8.062;2022-07-22T14:13:27;41.83;;;39.33;;
8710;SDS011;4392;47.400;8.062;2022-07-22T14:15:53;41.13;;;38.92;;
8710;SDS011;4392;47.400;8.062;2022-07-22T14:18:21;40.92;;;38.72;;
8710;SDS011;4392;47.400;8.062;2022-07-22T14:20:47;41.50;;;39.28;;
8710;SDS011;4392;47.400;8.062;2022-07-22T14:23:13;41.08;;;38.88;;
8710;SDS011;4392;47.400;8.062;2022-07-22T14:25:40;40.03;;;37.85;;
8710;SDS011;4392;47.400;8.062;2022-07-22T14:28:06;41.17;;;38.75;;
8710;SDS011;4392;47.400;8.062;2022-07-22T14:30:32;40.58;;;38.42;;
8710;SDS011;4392;47.400;8.062;2022-07-22T14:32:59;40.78;;;38.58;;
8710;SDS011;4392;47.400;8.062;2022-07-22T14:35:25;40.95;;;38.47;;
8710;SDS011;4392;47.400;8.062;2022-07-22T14:37:51;40.47;;;38.30;;
8710;SDS011;4392;47.400;8.062;2022-07-22T14:40:20;41.28;;;38.95;;
8710;SDS011;4392;47.400;8.062;2022-07-22T14:42:46;41.22;;;38.85;;
8710;SDS011;4392;47.400;8.062;2022-07-22T14:45:13;40.25;;;37.95;;
8710;SDS011;4392;47.400;8.062;2022-07-22T14:47:39;41.42;;;39.22;;
8710;SDS011;4392;47.400;8.062;2022-07-22T14:50:05;40.97;;;38.75;;
8710;SDS011;4392;47.400;8.062;2022-07-22T14:52:31;40.70;;;38.40;;
8710;SDS011;4392;47.400;8.062;2022-07-22T14:54:57;40.35;;;38.15;;
8710;SDS011;4392;47.400;8.062;2022-07-22T14:57:23;41.28;;;38.88;;
8710;SDS011;4392;47.400;8.062;2022-07-22T14:59:49;41.72;;;39.33;;
8710;SDS011;4392;47.400;8.062;2022-07-22T15:02:15;41.42;;;39.20;;
8710;SDS011;4392;47.400;8.062;2022-07-22T15:04:40;41.97;;;39.63;;
8710;SDS011;4392;47.400;8.062;2022-07-22T15:07:06;41.13;;;39.03;;
8710;SDS011;4392;47.400;8.062;2022-07-22T15:09:33;41.92;;;39.63;;
8710;SDS011;4392;47.400;8.062;2022-07-22T15:11:59;41.65;;;39.33;;
8710;SDS011;4392;47.400;8.062;2022-07-22T15:14:24;41.67;;;39.28;;
8710;SDS011;4392;47.400;8.062;2022-07-22T15:16:50;40.92;;;38.72;;
8710;SDS011;4392;47.400;8.062;2022-07-22T15:19:19;40.45;;;38.35;;
8710;SDS011;4392;47.400;8.062;2022-07-22T15:21:45;41.65;;;39.45;;
8710;SDS011;4392;47.400;8.062;2022-07-22T15:24:12;42.03;;;39.17;;